Time;durP1;ratioP1;P1;durP2;ratioP2;P2;SDS_P1;SDS_P2;PMS_P1;PMS_P2;Temp;Humidity;BMP_temperature;BMP_pressure;BME280_temperature;BME280_humidity;BME280_pressure;Samples;Min_cycle;Max_cycle;Signal;HPM_P1;HPM_P2
2023/01/20 00:00:39;;;;;;;;;0.00;0.00;;;;;8.52;74.80;100168.38;5015613;28;45575;-73
2023/01/20 00:03:04;;;;;;;;;0.00;0.00;;;;;8.44;74.63;100155.97;5015090;28;45469;-72
2023/01/20 00:05:30;;;;;;;;;1.00;0.00;;;;;8.37;74.59;100149.63;5015613;28;45518;-71
2023/01/20 00:07:55;;;;;;;;;1.00;0.00;;;;;8.25;74.29;100163.13;5015338;28;45627;-78
2023/01/20 00:10:21;;;;;;;;;0.00;0.00;;;;;8.29;74.20;100190.13;5016265;28;45443;-77
2023/01/20 00:12:46;;;;;;;;;0.00;0.00;;;;;8.21;74.71;100196.81;5016256;28;45368;-71
2023/01/20 00:15:12;;;;;;;;;0.00;0.00;;;;;8.23;74.92;100203.81;5016593;28;45510;-83
2023/01/20 00:17:37;;;;;;;;;0.00;0.00;;;;;8.21;74.82;100207.22;5016313;28;45359;-73
2023/01/20 00:20:04;;;;;;;;;0.00;0.00;;;;;8.16;75.15;100213.16;5016351;28;45493;-76
2023/01/20 00:22:33;;;;;;;;;0.00;0.00;;;;;8.16;74.05;100217.47;5016453;28;45303;-71
2023/01/20 00:25:00;;;;;;;;;0.00;0.00;;;;;8.08;73.99;100229.34;5017070;28;45426;-76
2023/01/20 00:27:26;;;;;;;;;0.00;0.00;;;;;8.05;73.89;100224.00;5016487;28;45350;-77
2023/01/20 00:29:51;;;;;;;;;0.00;0.00;;;;;8.01;73.84;100229.94;5004402;28;45577;-72
2023/01/20 00:32:17;;;;;;;;;0.00;0.00;;;;;8.02;73.48;100236.91;5012345;28;45538;-71
2023/01/20 00:34:42;;;;;;;;;0.00;0.00;;;;;7.96;73.16;100248.88;5016932;28;45259;-74
2023/01/20 00:37:08;;;;;;;;;0.00;0.00;;;;;7.90;73.44;100258.19;5017352;28;45988;-71
2023/01/20 00:39:33;;;;;;;;;0.00;0.00;;;;;7.90;73.34;100266.84;5017114;28;45476;-72
2023/01/20 00:41:59;;;;;;;;;0.00;0.00;;;;;7.75;72.46;100256.78;5015905;28;45543;-72
2023/01/20 00:44:24;;;;;;;;;0.00;0.00;;;;;7.74;72.78;100275.81;5000954;28;45549;-73
2023/01/20 00:46:50;;;;;;;;;0.00;0.00;;;;;7.68;72.64;100275.59;5016076;28;45524;-78
2023/01/20 00:49:15;;;;;;;;;0.00;0.00;;;;;7.70;72.94;100280.81;5016771;28;45373;-72
2023/01/20 00:51:41;;;;;;;;;1.00;0.00;;;;;7.71;72.69;100290.41;5016676;28;45422;-72
2023/01/20 00:54:06;;;;;;;;;0.00;0.00;;;;;7.60;72.54;100302.13;5016155;28;45254;-73
2023/01/20 00:56:32;;;;;;;;;0.00;0.00;;;;;7.58;72.56;100309.88;5015625;28;45700;-72
2023/01/20 00:58:57;;;;;;;;;0.00;0.00;;;;;7.55;72.84;100310.63;5016314;28;45387;-74
2023/01/20 01:01:23;;;;;;;;;0.00;0.00;;;;;7.45;73.05;100312.81;5016833;28;45360;-74
2023/01/20 01:03:52;;;;;;;;;0.00;0.00;;;;;7.40;73.15;100322.13;5016802;28;45544;-72
2023/01/20 01:06:18;;;;;;;;;0.00;0.00;;;;;7.36;72.65;100340.22;5015804;28;45487;-71
2023/01/20 01:08:44;;;;;;;;;1.00;0.50;;;;;7.29;72.53;100346.00;5016285;28;45552;-73
2023/01/20 01:11:11;;;;;;;;;2.50;0.00;;;;;7.26;73.26;100348.50;5016526;28;45267;-73
2023/01/20 01:13:37;;;;;;;;;0.00;0.00;;;;;7.05;73.36;100358.00;5016740;28;45336;-75
2023/01/20 01:16:04;;;;;;;;;0.00;0.00;;;;;7.04;73.73;100367.47;5015403;28;46202;-71
2023/01/20 01:18:30;;;;;;;;;0.00;0.00;;;;;7.05;74.04;100377.06;5016214;28;46161;-74
2023/01/20 01:20:56;;;;;;;;;0.00;0.00;;;;;7.02;73.50;100383.84;5016735;28;45512;-72
2023/01/20 01:23:21;;;;;;;;;0.00;0.00;;;;;6.95;73.78;100388.78;5016351;28;45509;-72
2023/01/20 01:25:47;;;;;;;;;1.00;0.00;;;;;7.03;73.76;100390.81;5015394;28;46193;-81
2023/01/20 01:28:12;;;;;;;;;1.00;1.00;;;;;6.99;73.35;100389.81;5016078;28;45469;-83
2023/01/20 01:30:38;;;;;;;;;1.75;1.00;;;;;6.94;73.09;100409.47;5016291;28;45533;-72
2023/01/20 01:33:03;;;;;;;;;0.25;0.25;;;;;6.88;73.25;100411.81;5016886;28;45757;-81
2023/01/20 01:35:29;;;;;;;;;1.00;1.00;;;;;6.76;73.14;100410.50;5015460;28;45442;-71
2023/01/20 01:37:54;;;;;;;;;1.00;1.00;;;;;6.74;73.46;100424.22;5016294;28;45425;-81
2023/01/20 01:40:20;;;;;;;;;1.50;1.00;;;;;6.68;73.74;100416.16;5016135;28;45181;-72
2023/01/20 01:42:45;;;;;;;;;1.00;1.00;;;;;6.64;73.35;100422.91;5016270;28;45287;-73
2023/01/20 01:45:10;;;;;;;;;1.25;1.00;;;;;6.57;73.92;100432.16;5015069;28;46095;-73
2023/01/20 01:48:00;;;;;;;;;0.25;0.25;;;;;6.42;73.89;100436.66;5015904;28;45237;-74
2023/01/20 01:50:46;;;;;;;;;4.25;3.00;;;;;6.28;74.11;100448.13;5014329;28;45505;-82
2023/01/20 01:53:14;;;;;;;;;1.00;1.00;;;;;6.25;74.23;100461.84;5014127;28;45514;-76
2023/01/20 01:55:48;;;;;;;;;1.75;1.75;;;;;6.10;74.54;100464.59;5016477;28;45378;-72
2023/01/20 01:58:16;;;;;;;;;5.00;2.00;;;;;5.90;74.65;100470.53;5017827;28;45577;-76
2023/01/20 02:00:43;;;;;;;;;0.75;0.00;;;;;5.80;74.65;100482.16;5018941;28;45461;-75
2023/01/20 02:03:10;;;;;;;;;0.00;0.00;;;;;5.64;74.47;100490.03;5019030;28;45498;-72
2023/01/20 02:05:37;;;;;;;;;0.25;0.00;;;;;5.61;75.33;100498.56;5018622;28;46140;-71
2023/01/20 02:08:04;;;;;;;;;0.75;0.75;;;;;5.54;75.55;100497.34;5017973;28;45363;-75
2023/01/20 02:10:30;;;;;;;;;1.00;1.00;;;;;5.49;75.58;100498.84;5018609;28;45495;-71
2023/01/20 02:12:56;;;;;;;;;0.00;0.00;;;;;5.54;75.52;100507.69;5009735;28;45398;-73
2023/01/20 02:15:29;;;;;;;;;1.25;1.00;;;;;5.44;74.69;100505.47;5012772;28;46305;-72
2023/01/20 02:17:54;;;;;;;;;5.00;2.00;;;;;5.35;75.79;100505.00;5017458;28;45486;-73
2023/01/20 02:20:48;;;;;;;;;2.00;0.25;;;;;5.28;75.56;100503.81;5018620;28;45384;-71
2023/01/20 02:23:13;;;;;;;;;1.00;1.00;;;;;5.22;75.83;100513.00;5018945;28;45494;-74
2023/01/20 02:26:02;;;;;;;;;0.00;0.00;;;;;5.18;75.69;100522.28;5017590;28;45358;-82
2023/01/20 02:28:42;;;;;;;;;0.00;0.00;;;;;5.17;75.39;100534.38;5017981;28;45556;-73
2023/01/20 02:31:42;;;;;;;;;0.00;0.00;;;;;5.14;74.83;100525.53;5018581;28;45380;-72
2023/01/20 02:34:18;;;;;;;;;0.00;0.00;;;;;4.94;74.83;100516.75;5018886;28;45334;-75
2023/01/20 02:36:49;;;;;;;;;1.00;1.00;;;;;5.05;75.41;100527.66;5002989;28;45485;-73
2023/01/20 02:39:46;;;;;;;;;0.00;0.00;;;;;4.99;75.38;100541.16;5018238;28;45457;-72
2023/01/20 02:42:24;;;;;;;;;1.25;0.00;;;;;4.89;74.50;100525.97;4990659;28;45571;-75
2023/01/20 02:45:01;;;;;;;;;0.00;0.00;;;;;4.88;74.50;100538.03;5018235;28;45797;-75
2023/01/20 02:47:44;;;;;;;;;0.00;0.00;;;;;4.87;74.42;100546.59;5018137;28;45384;-76
2023/01/20 02:50:35;;;;;;;;;0.75;0.00;;;;;4.84;74.57;100554.19;5017698;28;45388;-72
2023/01/20 02:53:06;;;;;;;;;0.00;0.00;;;;;4.71;74.37;100538.81;5018412;28;45367;-75
2023/01/20 02:55:39;;;;;;;;;1.00;0.00;;;;;4.89;74.52;100565.66;5018725;28;45520;-71
2023/01/20 02:58:45;;;;;;;;;0.00;0.00;;;;;4.87;75.16;100579.34;5017337;28;45266;-73
2023/01/20 03:01:16;;;;;;;;;1.00;1.00;;;;;4.75;75.34;100561.47;4925422;28;45608;-71
2023/01/20 03:03:45;;;;;;;;;5.00;2.00;;;;;4.76;75.59;100583.97;4996176;28;45477;-72
2023/01/20 03:06:18;;;;;;;;;0.00;0.00;;;;;4.73;75.71;100591.53;5018684;28;45323;-73
2023/01/20 03:08:47;;;;;;;;;0.00;0.00;;;;;4.66;76.25;100592.94;5017443;28;46292;-72
2023/01/20 03:11:13;;;;;;;;;1.00;1.00;;;;;4.63;75.79;100600.50;5017898;28;45378;-71
2023/01/20 03:13:43;;;;;;;;;1.50;1.00;;;;;4.53;76.30;100601.69;5018687;28;45701;-71
2023/01/20 03:16:17;;;;;;;;;2.00;1.00;;;;;4.54;76.17;100600.91;5018339;28;45512;-70
2023/01/20 03:18:43;;;;;;;;;0.00;0.00;;;;;4.49;76.49;100612.69;5017350;28;45589;-71
2023/01/20 03:21:10;;;;;;;;;1.00;1.00;;;;;4.55;76.69;100605.25;5017489;28;45536;-72
2023/01/20 03:23:41;;;;;;;;;1.25;1.25;;;;;4.36;76.74;100592.13;5017774;28;45556;-72
2023/01/20 03:26:10;;;;;;;;;1.00;1.00;;;;;4.42;76.76;100610.59;5017386;28;45679;-76
2023/01/20 03:28:35;;;;;;;;;1.75;1.25;;;;;4.42;77.12;100617.44;5017566;28;46206;-80
2023/01/20 03:31:12;;;;;;;;;1.50;1.00;;;;;4.31;77.17;100620.31;5016744;28;45536;-72
2023/01/20 03:33:38;;;;;;;;;1.50;1.00;;;;;4.26;77.48;100624.34;5017064;28;45423;-71
2023/01/20 03:36:06;;;;;;;;;0.00;0.00;;;;;4.18;78.24;100626.50;5017343;28;45521;-76
2023/01/20 03:38:32;;;;;;;;;1.00;1.00;;;;;4.19;78.07;100628.25;5017739;28;45417;-71
2023/01/20 03:41:17;;;;;;;;;0.00;0.00;;;;;3.88;77.81;100586.88;4999613;28;45384;-77
2023/01/20 03:44:06;;;;;;;;;2.00;1.00;;;;;4.10;78.22;100637.19;5012999;28;45670;-71
2023/01/20 03:46:45;;;;;;;;;0.00;0.00;;;;;4.03;77.83;100614.41;5017444;28;45536;-73
2023/01/20 03:49:34;;;;;;;;;0.00;0.00;;;;;4.18;77.51;100639.44;5015395;28;46328;-71
2023/01/20 03:52:07;;;;;;;;;0.00;0.00;;;;;4.19;76.92;100648.06;5016743;28;45502;-71
2023/01/20 03:54:51;;;;;;;;;1.00;1.00;;;;;4.11;77.46;100650.22;5017544;28;45438;-70
2023/01/20 03:57:21;;;;;;;;;1.00;0.00;;;;;4.11;77.37;100655.38;5017160;28;45461;-71
2023/01/20 03:59:50;;;;;;;;;0.75;0.00;;;;;4.19;77.50;100666.16;5016193;28;45676;-71
2023/01/20 04:02:16;;;;;;;;;1.50;1.50;;;;;4.24;77.06;100669.00;5016759;28;45336;-71
2023/01/20 04:04:44;;;;;;;;;3.00;3.00;;;;;4.32;76.67;100666.06;5016686;28;45501;-73
2023/01/20 04:07:26;;;;;;;;;1.00;1.00;;;;;4.35;76.65;100676.56;4993661;28;45847;-71
2023/01/20 04:09:57;;;;;;;;;3.25;2.25;;;;;4.39;76.18;100682.81;5017042;28;45442;-72
2023/01/20 04:12:23;;;;;;;;;2.00;1.00;;;;;4.32;76.56;100681.59;5016190;28;45602;-72
2023/01/20 04:14:52;;;;;;;;;7.75;6.75;;;;;4.17;76.60;100689.34;5017272;28;45449;-72
2023/01/20 04:17:17;;;;;;;;;1.75;1.75;;;;;3.98;76.96;100666.72;5028946;28;45587;-78
2023/01/20 04:19:43;;;;;;;;;2.75;1.00;;;;;4.11;76.29;100694.16;5012409;28;45588;-73
2023/01/20 04:22:16;;;;;;;;;1.00;1.00;;;;;3.95;76.91;100694.06;5016613;28;45578;-72
2023/01/20 04:24:45;;;;;;;;;2.50;1.50;;;;;3.92;77.01;100709.38;5016413;28;45236;-72
2023/01/20 04:27:10;;;;;;;;;4.75;2.00;;;;;3.78;76.85;100701.72;5016914;28;45462;-72
2023/01/20 04:29:36;;;;;;;;;5.25;3.75;;;;;3.78;76.54;100700.84;5016075;28;46293;-72
2023/01/20 04:32:02;;;;;;;;;6.00;2.00;;;;;3.35;77.44;100655.22;5016682;28;45444;-73
2023/01/20 04:34:28;;;;;;;;;1.50;1.00;;;;;3.45;77.00;100677.34;5016997;28;45412;-73
2023/01/20 04:36:54;;;;;;;;;9.50;7.75;;;;;3.58;77.51;100715.13;5016736;28;45359;-79
2023/01/20 04:39:19;;;;;;;;;5.50;4.00;;;;;3.52;77.54;100717.34;5015742;28;45465;-74
2023/01/20 04:41:46;;;;;;;;;9.50;8.75;;;;;3.48;77.90;100718.88;5016410;28;45256;-73
2023/01/20 04:44:12;;;;;;;;;2.00;2.00;;;;;3.34;77.73;100701.59;5000662;28;45480;-72
2023/01/20 04:46:37;;;;;;;;;1.50;1.00;;;;;3.46;78.27;100725.63;5016855;28;45480;-73
2023/01/20 04:49:03;;;;;;;;;1.00;1.00;;;;;3.44;78.10;100723.72;5016217;28;46076;-77
2023/01/20 04:51:28;;;;;;;;;5.00;2.75;;;;;3.42;78.42;100728.78;5016544;28;45303;-72
2023/01/20 04:53:58;;;;;;;;;10.00;8.75;;;;;3.42;78.24;100738.22;5016880;28;45258;-72
2023/01/20 04:56:23;;;;;;;;;6.00;5.00;;;;;3.26;78.00;100711.47;5012211;28;45362;-72
2023/01/20 04:58:49;;;;;;;;;4.25;4.25;;;;;3.39;77.88;100739.84;5004445;28;45480;-78
2023/01/20 05:01:14;;;;;;;;;1.00;1.00;;;;;3.38;77.10;100735.47;5016566;28;45399;-77
2023/01/20 05:03:40;;;;;;;;;7.75;5.00;;;;;3.40;77.08;100740.72;5000712;28;45613;-71
2023/01/20 05:06:05;;;;;;;;;10.25;8.00;;;;;3.29;77.57;100724.56;5000156;28;45459;-75
2023/01/20 05:08:33;;;;;;;;;4.50;4.50;;;;;3.31;77.44;100743.63;5015862;28;45489;-76
2023/01/20 05:10:58;;;;;;;;;13.25;12.75;;;;;3.12;77.45;100709.72;5016126;28;45314;-76
2023/01/20 05:13:24;;;;;;;;;4.25;4.00;;;;;3.07;77.37;100712.03;5015490;28;45622;-73
2023/01/20 05:15:49;;;;;;;;;1.00;1.00;;;;;3.26;77.90;100742.44;5016081;28;45366;-71
2023/01/20 05:18:15;;;;;;;;;1.00;1.00;;;;;3.23;77.67;100749.13;5015824;28;45393;-73
2023/01/20 05:20:44;;;;;;;;;0.25;0.25;;;;;3.21;78.02;100753.31;5016315;28;45401;-72
2023/01/20 05:23:09;;;;;;;;;0.00;0.00;;;;;3.12;78.80;100740.69;5016346;28;45437;-72
2023/01/20 05:25:35;;;;;;;;;0.00;0.00;;;;;3.13;78.41;100755.41;5000271;28;45661;-72
2023/01/20 05:28:00;;;;;;;;;0.00;0.00;;;;;2.94;78.89;100727.53;5015522;28;46114;-77
2023/01/20 05:30:26;;;;;;;;;1.00;1.00;;;;;3.07;79.25;100761.06;5015539;28;45372;-73
2023/01/20 05:32:54;;;;;;;;;1.00;0.00;;;;;3.05;78.73;100772.09;5019461;28;45523;-81
2023/01/20 05:35:19;;;;;;;;;0.00;0.00;;;;;3.04;79.81;100775.47;5020011;28;45240;-71
2023/01/20 05:37:45;;;;;;;;;0.00;0.00;;;;;2.97;79.83;100775.06;5019316;28;46203;-75
2023/01/20 05:40:11;;;;;;;;;1.75;1.00;;;;;2.95;79.27;100786.09;5019839;28;45338;-72
2023/01/20 05:42:36;;;;;;;;;2.00;2.00;;;;;2.90;79.56;100787.47;5019200;28;45372;-71
2023/01/20 05:45:02;;;;;;;;;46.25;39.00;;;;;2.88;79.22;100791.66;5019160;28;45404;-73
2023/01/20 05:47:28;;;;;;;;;4.75;4.75;;;;;2.85;79.59;100797.50;5018725;28;45516;-72
2023/01/20 05:49:53;;;;;;;;;13.50;9.75;;;;;2.81;80.57;100790.38;5018920;28;45331;-72
2023/01/20 05:52:19;;;;;;;;;3.50;3.50;;;;;2.66;79.99;100761.00;5019088;28;45786;-71
2023/01/20 05:54:47;;;;;;;;;3.00;2.00;;;;;2.58;80.40;100750.16;5018844;28;45470;-79
2023/01/20 05:57:16;;;;;;;;;17.00;17.00;;;;;2.77;80.29;100790.97;5019041;28;46198;-74
2023/01/20 05:59:46;;;;;;;;;4.25;2.00;;;;;2.74;79.43;100795.91;5019315;28;45848;-72
2023/01/20 06:02:14;;;;;;;;;2.50;2.50;;;;;2.50;80.22;100767.72;5018139;28;45505;-75
2023/01/20 06:04:40;;;;;;;;;35.25;32.00;;;;;2.52;80.51;100780.72;5019672;28;45434;-86
2023/01/20 06:07:05;;;;;;;;;8.25;8.25;;;;;2.65;80.04;100810.81;5018872;28;46342;-72
2023/01/20 06:09:31;;;;;;;;;0.50;0.00;;;;;2.44;80.21;100774.16;5030262;28;45402;-72
2023/01/20 06:11:56;;;;;;;;;1.50;1.00;;;;;2.61;80.40;100816.53;5007647;28;45494;-75
2023/01/20 06:14:22;;;;;;;;;10.25;10.25;;;;;2.19;79.85;100762.25;5018319;28;45685;-75
2023/01/20 06:16:50;;;;;;;;;114.33;100.67;;;;;2.51;79.58;100833.09;5017410;28;45517;-70
2023/01/20 06:19:15;;;;;;;;;11.00;11.00;;;;;2.44;79.92;100833.47;5018140;28;45522;-71
2023/01/20 06:21:40;;;;;;;;;6.00;6.00;;;;;2.35;79.59;100837.22;5017427;28;45503;-74
2023/01/20 06:24:06;;;;;;;;;24.25;20.75;;;;;2.32;80.25;100839.56;5017308;28;45366;-71
2023/01/20 06:26:34;;;;;;;;;22.25;21.50;;;;;2.31;79.81;100842.06;5017568;28;45405;-80
2023/01/20 06:29:00;;;;;;;;;8.00;7.50;;;;;2.31;79.96;100847.22;5017673;28;45373;-70
2023/01/20 06:31:27;;;;;;;;;12.50;11.25;;;;;2.30;79.87;100848.00;5013910;28;45419;-69
2023/01/20 06:33:56;;;;;;;;;5.00;5.00;;;;;2.06;80.37;100808.56;5014589;28;45509;-75
2023/01/20 06:36:22;;;;;;;;;29.75;28.50;;;;;2.28;79.98;100852.16;5017137;28;45275;-70
2023/01/20 06:38:49;;;;;;;;;0.00;0.00;;;;;2.26;80.18;100854.63;5017538;28;45385;-71
2023/01/20 06:41:17;;;;;;;;;1.50;1.00;;;;;2.25;80.36;100854.53;5017184;28;45601;-71
2023/01/20 06:43:43;;;;;;;;;0.00;0.00;;;;;2.23;79.90;100857.03;5017775;28;45485;-69
2023/01/20 06:46:13;;;;;;;;;0.50;0.50;;;;;2.22;79.74;100862.94;5017342;28;46322;-67
2023/01/20 06:48:40;;;;;;;;;0.25;0.00;;;;;2.22;79.66;100865.53;5014791;28;45497;-74
2023/01/20 06:51:10;;;;;;;;;0.00;0.00;;;;;2.06;79.78;100849.81;5014557;28;45411;-71
2023/01/20 06:53:35;;;;;;;;;0.50;0.00;;;;;2.17;80.61;100872.97;5017528;28;45999;-71
2023/01/20 06:56:01;;;;;;;;;1.00;1.00;;;;;2.16;80.60;100878.00;5016779;28;45445;-70
2023/01/20 06:58:30;;;;;;;;;0.00;0.00;;;;;2.13;80.11;100877.78;5017261;28;45525;-87
2023/01/20 07:00:56;;;;;;;;;0.00;0.00;;;;;2.11;79.95;100887.06;5014080;28;45701;-72
2023/01/20 07:03:23;;;;;;;;;0.00;0.00;;;;;2.04;79.88;100878.03;5016939;28;45534;-70
2023/01/20 07:06:01;;;;;;;;;0.00;0.00;;;;;1.92;80.45;100862.63;5016915;28;46037;-73
2023/01/20 07:08:28;;;;;;;;;0.25;0.00;;;;;1.82;80.23;100842.16;5014108;28;45374;-69
2023/01/20 07:10:53;;;;;;;;;0.00;0.00;;;;;2.06;80.34;100889.34;5015500;28;45545;-77
2023/01/20 07:13:19;;;;;;;;;2.00;2.00;;;;;1.70;80.09;100836.16;5016657;28;45501;-81
2023/01/20 07:15:44;;;;;;;;;0.00;0.00;;;;;2.10;79.92;100896.50;5014524;28;45319;-76
2023/01/20 07:18:10;;;;;;;;;0.25;0.25;;;;;2.10;79.86;100886.19;5019288;28;45747;-69
2023/01/20 07:20:37;;;;;;;;;2.00;0.00;;;;;2.17;80.21;100900.41;5018287;28;45645;-70
2023/01/20 07:23:04;;;;;;;;;2.25;1.00;;;;;2.24;80.40;100905.19;5017404;28;45573;-72
2023/01/20 07:25:30;;;;;;;;;40.00;39.50;;;;;2.06;80.28;100875.56;5016409;28;46070;-71
2023/01/20 07:27:58;;;;;;;;;4.00;4.00;;;;;2.19;80.14;100911.72;5018781;28;45370;-74
2023/01/20 07:30:26;;;;;;;;;0.00;0.00;;;;;1.98;80.12;100875.03;5017766;28;45418;-78
2023/01/20 07:32:52;;;;;;;;;2.00;2.00;;;;;1.95;79.69;100874.81;5016507;28;45528;-73
2023/01/20 07:35:18;;;;;;;;;1.00;1.00;;;;;1.99;79.19;100885.47;5015909;28;46278;-75
2023/01/20 07:37:43;;;;;;;;;0.25;0.00;;;;;2.10;79.81;100906.81;5016711;28;45621;-73
2023/01/20 07:40:11;;;;;;;;;2.00;1.50;;;;;2.05;80.55;100907.28;5016310;28;45407;-70
2023/01/20 07:42:37;;;;;;;;;4.00;4.00;;;;;2.04;80.28;100903.81;5009781;28;45493;-72
2023/01/20 07:45:04;;;;;;;;;54.50;43.50;;;;;2.07;80.51;100916.94;5014539;28;45522;-77
2023/01/20 07:47:29;;;;;;;;;55.50;44.75;;;;;2.03;80.33;100904.63;5015745;28;45507;-72
2023/01/20 07:49:55;;;;;;;;;22.00;19.50;;;;;2.07;80.62;100911.78;5015618;28;45623;-70
2023/01/20 07:52:20;;;;;;;;;18.75;17.50;;;;;2.07;80.78;100914.34;5015569;28;45410;-74
2023/01/20 07:54:46;;;;;;;;;60.25;49.50;;;;;2.08;81.00;100918.69;5015677;28;45588;-74
2023/01/20 07:57:11;;;;;;;;;44.75;39.00;;;;;2.09;80.89;100920.50;5016212;28;45511;-72
2023/01/20 07:59:37;;;;;;;;;21.50;19.50;;;;;2.12;80.51;100922.38;5016788;28;45604;-72
2023/01/20 08:02:03;;;;;;;;;36.75;32.75;;;;;2.00;80.57;100914.69;5016403;28;45486;-78
2023/01/20 08:04:28;;;;;;;;;23.00;22.50;;;;;2.14;80.89;100915.66;5014027;28;47015;-74
2023/01/20 08:06:54;;;;;;;;;19.25;16.75;;;;;2.23;80.43;100929.19;5013555;28;45779;-71
2023/01/20 08:09:21;;;;;;;;;17.75;16.75;;;;;2.23;80.55;100933.44;5018670;28;45530;-71
2023/01/20 08:11:47;;;;;;;;;9.00;9.00;;;;;2.26;80.88;100933.66;5013933;28;45472;-73
2023/01/20 08:14:12;;;;;;;;;11.75;11.50;;;;;2.26;80.46;100934.53;5015077;28;45483;-73
2023/01/20 08:16:38;;;;;;;;;15.25;15.25;;;;;2.35;80.17;100934.31;5014807;28;45440;-76
2023/01/20 08:19:03;;;;;;;;;34.00;31.25;;;;;2.34;79.91;100941.13;5014815;28;45473;-72
2023/01/20 08:21:31;;;;;;;;;35.00;30.25;;;;;2.38;79.98;100939.66;5012141;28;45549;-72
2023/01/20 08:23:59;;;;;;;;;27.50;24.00;;;;;2.45;80.00;100946.13;5015445;28;46645;-72
2023/01/20 08:26:27;;;;;;;;;34.00;33.50;;;;;2.53;80.15;100957.88;5014858;28;45379;-70
2023/01/20 08:28:53;;;;;;;;;4.00;4.00;;;;;2.61;79.79;100955.81;5015156;28;45388;-72
2023/01/20 08:31:22;;;;;;;;;4.00;4.00;;;;;2.69;79.94;100954.66;5011747;28;45521;-71
2023/01/20 08:33:54;;;;;;;;;21.00;13.00;;;;;2.75;79.38;100958.53;5012922;28;46067;-72
2023/01/20 08:36:24;;;;;;;;;60.50;51.00;;;;;2.45;79.20;100897.13;5015845;28;45446;-72
2023/01/20 08:38:50;;;;;;;;;27.75;25.75;;;;;2.64;79.05;100963.75;5011863;28;45383;-67
2023/01/20 08:41:19;;;;;;;;;7.50;7.50;;;;;2.55;79.93;100970.09;5014043;28;45617;-71
2023/01/20 08:43:45;;;;;;;;;7.00;5.75;;;;;2.40;79.16;100938.06;5014413;28;46174;-70
2023/01/20 08:46:13;;;;;;;;;81.00;62.00;;;;;2.74;79.08;100972.22;5015084;28;45444;-69
2023/01/20 08:48:40;;;;;;;;;44.25;39.25;;;;;2.74;79.36;100979.06;5016001;28;45517;-71
2023/01/20 08:51:14;;;;;;;;;158.25;134.75;;;;;2.78;79.13;100978.50;5016133;28;45348;-78
2023/01/20 08:53:40;;;;;;;;;46.50;43.00;;;;;2.83;78.98;100989.16;5015208;28;46181;-75
2023/01/20 08:56:06;;;;;;;;;30.75;25.00;;;;;2.95;79.53;100984.81;5015421;28;45383;-72
2023/01/20 08:58:32;;;;;;;;;19.00;15.75;;;;;3.09;78.91;100978.00;5015596;28;45433;-71
2023/01/20 09:00:58;;;;;;;;;10.25;10.25;;;;;3.16;78.41;100987.91;5016160;28;45651;-72
2023/01/20 09:03:26;;;;;;;;;15.00;12.00;;;;;3.17;77.76;100990.59;5013855;28;45912;-69
2023/01/20 09:05:52;;;;;;;;;12.50;11.00;;;;;3.28;77.30;100985.25;5018067;28;45621;-71
2023/01/20 09:08:19;;;;;;;;;23.00;20.00;;;;;3.22;76.71;100962.50;5022013;28;45437;-81
2023/01/20 09:10:45;;;;;;;;;13.00;12.00;;;;;3.54;77.29;100992.13;5022421;28;45459;-79
2023/01/20 09:13:10;;;;;;;;;13.75;13.50;;;;;3.67;77.22;100989.56;5021397;28;46058;-76
2023/01/20 09:15:36;;;;;;;;;26.50;24.25;;;;;3.81;76.15;100998.19;5035099;28;45489;-77
2023/01/20 09:18:02;;;;;;;;;16.50;12.75;;;;;3.96;77.07;100996.59;5020559;28;45346;-71
2023/01/20 09:20:29;;;;;;;;;11.25;9.75;;;;;4.18;75.71;101006.59;5021448;28;45332;-72
2023/01/20 09:22:55;;;;;;;;;1.50;1.50;;;;;4.34;75.97;100992.06;5020657;28;45500;-73
2023/01/20 09:25:20;;;;;;;;;5.00;4.00;;;;;4.96;73.17;101001.84;5021552;28;45489;-76
2023/01/20 09:27:49;;;;;;;;;5.25;5.00;;;;;5.97;72.51;100996.47;5025212;28;45358;-78
2023/01/20 09:30:15;;;;;;;;;17.00;16.00;;;;;7.06;66.61;100993.56;5023560;28;45523;-80
2023/01/20 09:32:40;;;;;;;;;8.00;7.00;;;;;8.11;63.82;100997.00;5024486;28;46039;-72
2023/01/20 09:35:06;;;;;;;;;8.25;7.75;;;;;8.39;65.31;100988.75;5022837;28;45505;-73
2023/01/20 09:43:54;;;;;;;;;2.25;2.25;;;;;10.53;56.21;100985.50;5019993;28;46285;-72
2023/01/20 09:46:37;;;;;;;;;6.00;5.00;;;;;11.04;55.54;100999.50;5020550;28;45434;-77
2023/01/20 09:55:28;;;;;;;;;2.00;2.00;;;;;11.78;52.51;100988.91;5022243;28;45242;-72
2023/01/20 09:58:04;;;;;;;;;3.00;3.00;;;;;11.99;54.26;100987.00;5022108;28;45433;-71
2023/01/20 10:00:32;;;;;;;;;4.33;4.00;;;;;12.22;52.39;100982.47;5020888;28;45531;-73
2023/01/20 10:03:28;;;;;;;;;9.00;7.50;;;;;12.34;51.71;101002.91;5022787;28;45612;-72
2023/01/20 10:05:58;;;;;;;;;6.67;6.67;;;;;12.51;52.03;101001.69;4974024;28;46119;-71
2023/01/20 10:08:38;;;;;;;;;6.67;6.00;;;;;12.68;51.68;100990.81;5020178;28;45521;-69
2023/01/20 10:11:12;;;;;;;;;8.00;6.67;;;;;12.78;52.68;100987.59;5020464;28;45791;-71
2023/01/20 10:13:46;;;;;;;;;7.67;6.67;;;;;12.76;49.69;100996.28;5020807;28;45200;-74
2023/01/20 10:16:22;;;;;;;;;6.00;5.33;;;;;12.84;51.48;100993.00;5017057;28;45569;-72
2023/01/20 10:18:57;;;;;;;;;2.33;2.00;;;;;12.69;47.96;100950.63;5013406;28;45333;-72
2023/01/20 10:21:25;;;;;;;;;3.00;3.00;;;;;12.66;48.69;100993.38;5016614;28;45676;-71
2023/01/20 10:23:57;;;;;;;;;3.00;2.00;;;;;12.73;49.69;100990.09;5016431;28;45433;-73
2023/01/20 10:26:41;;;;;;;;;3.00;3.00;;;;;12.85;49.44;100986.94;5017269;28;46137;-72
2023/01/20 10:29:16;;;;;;;;;11.00;7.00;;;;;12.79;49.65;100959.63;5015669;28;45563;-76
2023/01/20 10:31:50;;;;;;;;;10.00;9.00;;;;;13.02;50.67;100981.25;5015735;28;45398;-77
2023/01/20 10:34:19;;;;;;;;;3.00;3.00;;;;;13.00;48.18;100985.56;5015983;28;45560;-77
2023/01/20 10:36:55;;;;;;;;;6.00;5.67;;;;;13.02;49.51;100978.63;5016183;28;45697;-72
2023/01/20 10:39:30;;;;;;;;;3.00;3.00;;;;;13.08;48.12;100977.03;5012488;28;45938;-72
2023/01/20 10:42:03;;;;;;;;;4.00;3.00;;;;;13.02;46.87;100984.75;5013438;28;45756;-73
2023/01/20 10:44:33;;;;;;;;;0.33;0.00;;;;;12.92;45.50;100987.97;5012871;28;45679;-71
2023/01/20 10:47:36;;;;;;;;;2.00;1.00;;;;;12.84;45.07;100990.38;5016188;28;45399;-73
2023/01/20 10:50:19;;;;;;;;;2.00;2.00;;;;;12.57;44.74;100992.22;4951034;28;45593;-73
2023/01/20 10:53:07;;;;;;;;;0.00;0.00;;;;;12.31;44.74;100971.38;5013168;28;45500;-69
2023/01/20 10:55:52;;;;;;;;;0.00;0.00;;;;;12.40;46.24;100969.03;5015587;28;45438;-69
2023/01/20 10:58:29;;;;;;;;;11.75;11.25;;;;;12.41;42.18;100978.66;5016388;28;45494;-72
2023/01/20 11:00:57;;;;;;;;;8.00;8.00;;;;;12.37;41.72;100987.28;5015373;28;45385;-74
2023/01/20 11:03:24;;;;;;;;;1.00;1.00;;;;;12.36;44.19;100987.25;5015630;28;45602;-69
2023/01/20 11:05:50;;;;;;;;;1.33;1.00;;;;;12.26;42.82;100991.31;5015965;28;45343;-72
2023/01/20 11:08:17;;;;;;;;;3.00;2.00;;;;;12.18;44.08;100996.31;5015926;28;46213;-69
2023/01/20 11:10:45;;;;;;;;;0.00;0.00;;;;;12.17;43.87;100999.78;5015786;28;45882;-74
2023/01/20 11:13:11;;;;;;;;;0.00;0.00;;;;;12.21;43.57;100996.41;5014048;28;45491;-69
2023/01/20 11:15:43;;;;;;;;;0.00;0.00;;;;;12.04;44.11;100990.66;5015736;28;45515;-69
2023/01/20 11:18:14;;;;;;;;;0.00;0.00;;;;;11.96;42.11;100994.78;5013839;28;45332;-73
2023/01/20 11:20:54;;;;;;;;;0.00;0.00;;;;;11.90;43.64;100997.19;5015066;28;45822;-70
2023/01/20 11:23:41;;;;;;;;;0.00;0.00;;;;;11.90;42.53;100998.09;5015722;28;45581;-68
2023/01/20 11:26:23;;;;;;;;;0.00;0.00;;;;;11.70;43.37;101002.66;5016250;28;45585;-70
2023/01/20 11:29:07;;;;;;;;;0.00;0.00;;;;;11.84;44.04;100996.97;5015145;28;45678;-68
2023/01/20 11:31:38;;;;;;;;;0.00;0.00;;;;;11.91;43.18;101002.47;5013757;28;45633;-67
2023/01/20 11:34:28;;;;;;;;;0.67;0.00;;;;;12.03;43.69;100999.34;5017162;28;45640;-68
2023/01/20 11:37:20;;;;;;;;;0.00;0.00;;;;;12.03;42.75;100994.09;5013032;28;45640;-69
2023/01/20 11:39:48;;;;;;;;;1.00;0.00;;;;;11.91;42.64;100992.00;5013904;28;45588;-68
2023/01/20 11:42:26;;;;;;;;;2.00;1.00;;;;;11.61;42.88;100997.09;5015718;28;45379;-68
2023/01/20 11:44:53;;;;;;;;;0.00;0.00;;;;;11.48;41.62;100992.28;5014830;28;45490;-77
2023/01/20 11:47:28;;;;;;;;;0.00;0.00;;;;;11.34;43.23;100991.84;5016675;28;45199;-70
2023/01/20 11:50:03;;;;;;;;;1.00;0.00;;;;;11.23;44.17;100988.84;5014128;28;46357;-68
2023/01/20 11:52:37;;;;;;;;;1.67;1.00;;;;;11.20;44.34;100988.78;5014275;28;45645;-69